createdAt,value
2018-05-16T00:00:12.981Z,61.90
2018-05-16T00:02:39.164Z,61.90
2018-05-16T00:05:05.358Z,63.00
2018-05-16T00:07:31.594Z,62.70
2018-05-16T00:09:57.777Z,63.80
2018-05-16T00:12:23.988Z,63.70
2018-05-16T00:14:50.240Z,64.90
2018-05-16T00:17:17.193Z,64.30
2018-05-16T00:19:44.500Z,64.40
2018-05-16T00:22:10.689Z,64.20
2018-05-16T00:24:36.878Z,65.10
2018-05-16T00:27:03.064Z,65.20
2018-05-16T00:29:29.260Z,65.50
2018-05-16T00:31:56.189Z,65.60
2018-05-16T00:34:23.242Z,65.50
2018-05-16T00:36:49.437Z,65.60
2018-05-16T00:39:15.625Z,66.30
2018-05-16T00:41:41.820Z,65.40
2018-05-16T00:44:08.744Z,66.70
2018-05-16T00:46:34.978Z,66.60
2018-05-16T00:49:01.172Z,66.90
2018-05-16T00:51:31.291Z,66.70
2018-05-16T00:53:57.525Z,67.50
2018-05-16T00:56:23.730Z,66.90
2018-05-16T00:58:50.047Z,67.50
2018-05-16T01:01:17.054Z,67.50
2018-05-16T01:03:43.357Z,67.50
2018-05-16T01:06:09.812Z,68.70
2018-05-16T01:08:36.040Z,67.80
2018-05-16T01:11:02.248Z,68.70
2018-05-16T01:13:28.454Z,68.60
2018-05-16T01:15:54.684Z,68.50
2018-05-16T01:18:20.928Z,68.70
2018-05-16T01:20:47.869Z,70.00
2018-05-16T01:23:14.049Z,69.90
2018-05-16T01:25:40.244Z,69.50
2018-05-16T01:28:06.599Z,69.90
2018-05-16T01:30:32.800Z,70.10
2018-05-16T01:32:58.993Z,70.20
2018-05-16T01:35:25.186Z,71.60
2018-05-16T01:37:51.541Z,72.50
2018-05-16T01:40:18.493Z,71.80
2018-05-16T01:42:45.483Z,72.40
2018-05-16T01:45:11.684Z,72.40
2018-05-16T01:47:38.076Z,73.40
2018-05-16T01:50:04.268Z,72.90
2018-05-16T01:52:30.471Z,74.40
2018-05-16T01:54:57.426Z,73.30
2018-05-16T01:57:23.625Z,73.30
2018-05-16T01:59:49.856Z,73.10
2018-05-16T02:02:16.919Z,74.40
2018-05-16T02:04:43.836Z,75.00
2018-05-16T02:07:10.013Z,75.00
2018-05-16T02:09:36.213Z,75.70
2018-05-16T02:12:03.239Z,75.60
2018-05-16T02:14:29.588Z,75.60
2018-05-16T02:16:56.512Z,76.40
2018-05-16T02:19:22.718Z,76.40
2018-05-16T02:21:48.908Z,75.80
2018-05-16T02:24:15.145Z,75.90
2018-05-16T02:26:41.353Z,75.60
2018-05-16T02:29:08.280Z,76.70
2018-05-16T02:31:34.505Z,76.70
2018-05-16T02:34:00.693Z,77.10
2018-05-16T02:36:26.895Z,77.40
2018-05-16T02:38:53.929Z,77.80
2018-05-16T02:41:20.857Z,78.10
2018-05-16T02:43:47.043Z,78.00
2018-05-16T02:46:13.250Z,78.80
2018-05-16T02:48:39.428Z,78.90
2018-05-16T02:51:05.620Z,78.80
2018-05-16T02:53:31.932Z,79.70
2018-05-16T02:55:58.120Z,79.00
2018-05-16T02:58:24.319Z,77.90
2018-05-16T03:00:50.512Z,78.90
2018-05-16T03:03:17.465Z,78.00
2018-05-16T03:05:43.657Z,77.90
2018-05-16T03:08:09.835Z,78.80
2018-05-16T03:10:36.021Z,80.20
2018-05-16T03:13:02.971Z,79.70
2018-05-16T03:15:30.058Z,78.20
2018-05-16T03:17:56.232Z,78.20
2018-05-16T03:20:22.615Z,78.50
2018-05-16T03:22:48.824Z,79.20
2018-05-16T03:25:15.017Z,78.90
2018-05-16T03:27:41.644Z,78.90
2018-05-16T03:30:07.860Z,79.30
2018-05-16T03:32:34.045Z,81.60
2018-05-16T03:35:00.999Z,80.10
2018-05-16T03:37:27.929Z,80.20
2018-05-16T03:39:54.906Z,79.70
2018-05-16T03:42:21.311Z,79.70
2018-05-16T03:44:47.873Z,79.30
2018-05-16T03:47:14.136Z,79.90
2018-05-16T03:49:40.356Z,79.70
2018-05-16T03:52:06.807Z,79.80
2018-05-16T03:54:32.882Z,83.10
2018-05-16T03:56:59.080Z,80.80
2018-05-16T03:59:37.402Z,81.10
2018-05-16T04:02:16.616Z,86.60
2018-05-16T04:04:42.825Z,87.20
2018-05-16T04:07:09.030Z,86.00
2018-05-16T04:09:35.965Z,88.30
2018-05-16T04:12:02.546Z,88.20
2018-05-16T04:14:28.802Z,88.20
2018-05-16T04:16:55.748Z,87.00
2018-05-16T04:19:22.694Z,86.80
2018-05-16T04:21:49.706Z,86.00
2018-05-16T04:24:15.905Z,85.90
2018-05-16T04:26:42.125Z,88.70
2018-05-16T04:29:08.340Z,89.30
2018-05-16T04:31:35.292Z,90.30
2018-05-16T04:34:02.412Z,90.00
2018-05-16T04:36:29.234Z,90.00
2018-05-16T04:38:55.422Z,90.20
2018-05-16T04:41:21.616Z,90.20
2018-05-16T04:43:47.832Z,91.00
2018-05-16T04:46:14.109Z,90.90
2018-05-16T04:48:40.305Z,90.00
2018-05-16T04:51:06.507Z,90.70
2018-05-16T04:53:32.705Z,87.80
2018-05-16T04:55:58.915Z,90.10
2018-05-16T04:58:25.210Z,91.20
2018-05-16T05:00:51.793Z,90.00
2018-05-16T05:03:18.837Z,90.60
2018-05-16T05:05:45.068Z,90.50
2018-05-16T05:08:11.382Z,90.50
2018-05-16T05:10:38.324Z,90.70
2018-05-16T05:13:05.272Z,90.00
2018-05-16T05:15:32.277Z,90.60
2018-05-16T05:17:58.511Z,90.50
2018-05-16T05:20:24.713Z,91.10
2018-05-16T05:22:51.236Z,90.10
2018-05-16T05:25:17.462Z,90.80
2018-05-16T05:27:43.643Z,90.00
2018-05-16T05:30:11.088Z,90.80
2018-05-16T05:32:37.286Z,89.80
2018-05-16T05:35:03.505Z,90.50
2018-05-16T05:37:30.508Z,90.80
2018-05-16T05:39:56.716Z,90.40
2018-05-16T05:42:22.931Z,91.20
2018-05-16T05:44:49.129Z,90.70
2018-05-16T05:47:15.324Z,91.90
2018-05-16T05:49:41.621Z,91.10
2018-05-16T05:52:07.825Z,91.30
2018-05-16T05:54:34.048Z,90.70
2018-05-16T05:57:00.266Z,90.40
2018-05-16T05:59:27.265Z,90.80
2018-05-16T06:01:53.480Z,90.80
2018-05-16T06:04:19.670Z,91.10
2018-05-16T06:06:46.680Z,91.10
2018-05-16T06:09:12.880Z,91.10
2018-05-16T06:11:39.089Z,91.90
2018-05-16T06:14:05.313Z,91.20
2018-05-16T06:16:31.588Z,91.60
2018-05-16T06:18:58.218Z,91.60
2018-05-16T06:21:24.398Z,90.30
2018-05-16T06:23:50.594Z,88.00
2018-05-16T06:26:16.796Z,91.20
2018-05-16T06:28:43.056Z,91.20
2018-05-16T06:31:09.236Z,90.80
2018-05-16T06:33:35.428Z,90.90
2018-05-16T06:36:02.393Z,92.10
2018-05-16T06:38:28.668Z,92.00
2018-05-16T06:40:54.883Z,95.30
2018-05-16T06:43:21.201Z,91.80
2018-05-16T06:45:47.503Z,94.30
2018-05-16T06:48:13.628Z,91.60
2018-05-16T06:50:40.735Z,93.70
2018-05-16T06:53:06.929Z,93.60
2018-05-16T06:55:33.127Z,94.70
2018-05-16T06:58:00.056Z,92.30
2018-05-16T07:00:26.276Z,91.80
2018-05-16T07:02:52.500Z,88.10
2018-05-16T07:05:18.697Z,91.70
2018-05-16T07:07:44.899Z,91.30
2018-05-16T07:10:21.843Z,91.30
2018-05-16T07:12:48.052Z,91.30
2018-05-16T07:15:14.268Z,91.60
2018-05-16T07:17:40.480Z,91.20
2018-05-16T07:20:06.684Z,91.80
2018-05-16T07:22:33.617Z,91.30
2018-05-16T07:25:00.009Z,91.30
2018-05-16T07:27:26.194Z,91.40
2018-05-16T07:29:53.140Z,90.90
2018-05-16T07:32:20.096Z,91.50
2018-05-16T07:34:47.032Z,91.80
2018-05-16T07:37:14.390Z,90.30
2018-05-16T07:39:41.320Z,92.20
2018-05-16T07:42:08.264Z,90.00
2018-05-16T07:44:34.570Z,90.00
2018-05-16T07:47:00.856Z,88.10
2018-05-16T07:49:27.103Z,88.70
2018-05-16T07:51:53.434Z,89.20
2018-05-16T07:54:19.644Z,85.60
2018-05-16T07:56:45.944Z,87.90
2018-05-16T07:59:12.296Z,86.20
2018-05-16T08:01:38.504Z,80.00
2018-05-16T08:04:04.713Z,86.70
2018-05-16T08:06:30.957Z,80.50
2018-05-16T08:08:57.152Z,83.30
2018-05-16T08:11:23.356Z,83.50
2018-05-16T08:13:49.544Z,82.40
2018-05-16T08:16:16.173Z,77.90
2018-05-16T08:18:42.523Z,82.70
2018-05-16T08:21:08.708Z,78.10
2018-05-16T08:23:34.960Z,81.10
2018-05-16T08:26:01.157Z,80.90
2018-05-16T08:28:27.361Z,77.70
2018-05-16T08:30:54.303Z,76.00
2018-05-16T08:33:21.248Z,80.40
2018-05-16T08:35:48.205Z,79.80
2018-05-16T08:38:15.140Z,78.50
2018-05-16T08:40:42.154Z,79.50
2018-05-16T08:43:08.304Z,79.50
2018-05-16T08:45:34.508Z,75.50
2018-05-16T08:48:00.704Z,80.50
2018-05-16T08:50:26.893Z,79.10
2018-05-16T08:52:53.954Z,80.10
2018-05-16T08:55:20.885Z,80.50
2018-05-16T08:57:47.097Z,81.20
2018-05-16T09:00:13.290Z,77.30
2018-05-16T09:02:39.469Z,75.70
2018-05-16T09:05:05.800Z,76.90
2018-05-16T09:07:31.980Z,74.60
2018-05-16T09:09:58.165Z,73.40
2018-05-16T09:12:25.109Z,76.60
2018-05-16T09:14:52.152Z,74.10
2018-05-16T09:17:18.374Z,73.60
2018-05-16T09:19:44.585Z,75.10
2018-05-16T09:22:10.812Z,72.70
2018-05-16T09:24:37.005Z,75.30
2018-05-16T09:27:03.236Z,72.80
2018-05-16T09:29:29.433Z,75.50
2018-05-16T09:31:56.361Z,79.10
2018-05-16T09:34:22.548Z,79.10
2018-05-16T09:36:48.772Z,76.20
2018-05-16T09:39:14.969Z,77.30
2018-05-16T09:41:41.917Z,80.70
2018-05-16T09:44:08.856Z,75.60
2018-05-16T09:46:35.785Z,74.30
2018-05-16T09:49:02.003Z,74.00
2018-05-16T09:51:28.231Z,75.60
2018-05-16T09:53:54.644Z,79.90
2018-05-16T09:56:20.840Z,76.90
2018-05-16T09:58:47.024Z,71.50
2018-05-16T10:01:13.250Z,72.30
2018-05-16T10:03:40.409Z,72.70
2018-05-16T10:06:06.629Z,70.90
2018-05-16T10:08:32.841Z,68.70
2018-05-16T10:10:59.158Z,69.50
2018-05-16T10:13:25.373Z,68.70
2018-05-16T10:15:51.579Z,69.40
2018-05-16T10:18:18.529Z,70.10
2018-05-16T10:20:45.466Z,68.70
2018-05-16T10:23:12.416Z,70.30
2018-05-16T10:25:38.612Z,70.30
2018-05-16T10:28:04.808Z,69.00
2018-05-16T10:30:30.996Z,69.30
2018-05-16T10:32:57.984Z,67.50
2018-05-16T10:35:24.204Z,67.40
2018-05-16T10:37:50.396Z,68.90
2018-05-16T10:40:17.348Z,65.80
2018-05-16T10:42:44.469Z,65.80
2018-05-16T10:45:10.683Z,65.80
2018-05-16T10:47:36.885Z,67.00
2018-05-16T10:50:03.120Z,66.60
2018-05-16T10:52:29.321Z,67.80
2018-05-16T10:54:56.372Z,70.20
2018-05-16T10:57:23.356Z,70.30
2018-05-16T10:59:50.249Z,71.70
2018-05-16T11:02:17.196Z,68.60
2018-05-16T11:04:44.153Z,68.50
2018-05-16T11:07:11.088Z,68.50
2018-05-16T11:09:38.052Z,67.50
2018-05-16T11:12:04.393Z,67.60
2018-05-16T11:14:30.600Z,67.70
2018-05-16T11:16:57.572Z,65.50
2018-05-16T11:19:24.133Z,65.30
2018-05-16T11:21:50.320Z,65.80
2018-05-16T11:24:16.512Z,64.70
2018-05-16T11:26:42.730Z,64.80
2018-05-16T11:29:08.933Z,65.80
2018-05-16T11:31:35.140Z,66.60
2018-05-16T11:34:01.744Z,66.20
2018-05-16T11:36:27.949Z,67.00
2018-05-16T11:38:54.195Z,66.90
2018-05-16T11:41:21.153Z,68.40
2018-05-16T11:43:48.578Z,66.60
2018-05-16T11:46:14.782Z,66.50
2018-05-16T11:48:41.028Z,65.60
2018-05-16T11:51:07.933Z,66.00
2018-05-16T11:53:34.901Z,66.70
2018-05-16T11:56:01.096Z,66.60
2018-05-16T11:58:28.031Z,66.00
2018-05-16T12:00:54.256Z,65.90
2018-05-16T12:03:20.568Z,66.00
2018-05-16T12:05:46.766Z,64.30
2018-05-16T12:08:12.940Z,64.80
2018-05-16T12:10:39.152Z,63.50
2018-05-16T12:13:05.396Z,61.60
2018-05-16T12:15:32.373Z,57.90
2018-05-16T12:17:58.569Z,57.80
2018-05-16T12:20:24.764Z,58.10
2018-05-16T12:22:51.082Z,59.00
2018-05-16T12:25:17.300Z,61.30
2018-05-16T12:27:43.504Z,61.90
2018-05-16T12:30:10.468Z,63.90
2018-05-16T12:32:36.724Z,63.70
2018-05-16T12:35:02.929Z,63.70
2018-05-16T12:37:29.157Z,62.90
2018-05-16T12:39:56.102Z,64.20
2018-05-16T12:42:23.079Z,64.40
2018-05-16T12:44:49.348Z,64.40
2018-05-16T12:47:15.595Z,62.80
2018-05-16T12:49:42.569Z,63.20
2018-05-16T12:52:08.799Z,63.10
2018-05-16T12:54:35.126Z,64.70
2018-05-16T12:57:01.662Z,63.90
2018-05-16T12:59:27.839Z,63.90
2018-05-16T13:01:54.133Z,63.90
2018-05-16T13:04:21.232Z,62.80
2018-05-16T13:06:47.501Z,62.90
2018-05-16T13:09:13.686Z,63.30
2018-05-16T13:11:39.848Z,62.70
2018-05-16T13:14:06.117Z,64.80
2018-05-16T13:16:32.260Z,63.00
2018-05-16T13:18:58.432Z,64.20
2018-05-16T13:21:24.773Z,64.90
2018-05-16T13:23:50.921Z,64.50
2018-05-16T13:26:17.089Z,65.00
2018-05-16T13:28:43.224Z,65.60
2018-05-16T13:31:10.123Z,65.30
2018-05-16T13:33:36.284Z,65.10
2018-05-16T13:36:02.466Z,64.90
2018-05-16T13:38:28.620Z,66.10
2018-05-16T13:40:54.777Z,67.10
2018-05-16T13:43:21.252Z,67.00
2018-05-16T13:45:47.404Z,66.80
2018-05-16T13:48:13.565Z,67.70
2018-05-16T13:50:40.494Z,68.50
2018-05-16T13:53:06.660Z,68.40
2018-05-16T13:55:34.096Z,69.30
2018-05-16T13:58:01.020Z,69.50
2018-05-16T14:00:27.295Z,69.40
2018-05-16T14:02:53.457Z,70.10
2018-05-16T14:05:19.644Z,69.70
2018-05-16T14:07:46.543Z,68.00
2018-05-16T14:10:12.743Z,67.90
2018-05-16T14:12:38.896Z,67.30
2018-05-16T14:15:05.064Z,68.50
2018-05-16T14:17:31.217Z,67.50
2018-05-16T14:19:57.444Z,68.10
2018-05-16T14:22:23.576Z,67.90
2018-05-16T14:24:49.766Z,67.60
2018-05-16T14:27:16.373Z,67.50
2018-05-16T14:29:42.591Z,67.40
2018-05-16T14:32:08.745Z,67.20
2018-05-16T14:34:34.896Z,67.20
2018-05-16T14:37:01.781Z,67.60
2018-05-16T14:39:28.435Z,67.50
2018-05-16T14:41:54.609Z,67.10
2018-05-16T14:44:21.504Z,67.80
2018-05-16T14:46:48.607Z,67.10
2018-05-16T14:49:14.811Z,67.70
2018-05-16T14:51:40.989Z,70.00
2018-05-16T14:54:07.159Z,70.40
2018-05-16T14:56:33.345Z,70.20
2018-05-16T14:58:59.547Z,68.70
2018-05-16T15:01:26.443Z,70.20
2018-05-16T15:03:52.725Z,70.20
2018-05-16T15:06:18.852Z,69.70
2018-05-16T15:08:45.791Z,68.70
2018-05-16T15:11:12.837Z,69.90
2018-05-16T15:13:39.756Z,70.20
2018-05-16T15:16:05.940Z,70.30
2018-05-16T15:18:32.096Z,70.90
2018-05-16T15:20:58.276Z,71.10
2018-05-16T15:23:25.217Z,69.30
2018-05-16T15:25:52.126Z,70.90
2018-05-16T15:28:18.296Z,70.80
2018-05-16T15:30:45.216Z,70.90
2018-05-16T15:33:11.437Z,70.80
2018-05-16T15:35:37.654Z,71.00
2018-05-16T15:38:03.813Z,70.80
2018-05-16T15:40:30.723Z,72.10
2018-05-16T15:42:56.933Z,72.10
2018-05-16T15:45:23.089Z,72.00
2018-05-16T15:47:49.321Z,72.00
2018-05-16T15:50:15.513Z,71.80
2018-05-16T15:52:41.724Z,73.90
2018-05-16T15:55:07.887Z,73.50
2018-05-16T15:57:34.854Z,72.70
2018-05-16T16:00:01.024Z,72.70
2018-05-16T16:02:27.170Z,72.60
2018-05-16T16:04:53.489Z,73.50
2018-05-16T16:07:19.646Z,73.00
2018-05-16T16:09:45.820Z,74.40
2018-05-16T16:12:12.736Z,72.70
2018-05-16T16:14:38.891Z,72.50
2018-05-16T16:17:05.162Z,74.70
2018-05-16T16:19:31.495Z,75.10
2018-05-16T16:22:00.592Z,75.80
2018-05-16T16:24:26.759Z,75.10
2018-05-16T16:26:53.684Z,74.30
2018-05-16T16:29:19.827Z,74.30
2018-05-16T16:31:46.006Z,73.60
2018-05-16T16:34:12.207Z,74.70
2018-05-16T16:36:38.439Z,74.80
2018-05-16T16:39:05.655Z,75.00
2018-05-16T16:41:31.796Z,74.90
2018-05-16T16:43:57.982Z,74.00
2018-05-16T16:46:24.291Z,73.50
2018-05-16T16:48:50.465Z,75.50
2018-05-16T16:51:16.624Z,76.00
2018-05-16T16:53:43.520Z,74.70
2018-05-16T16:56:10.432Z,74.70
2018-05-16T16:58:36.664Z,74.80
2018-05-16T17:01:02.897Z,75.20
2018-05-16T17:03:29.068Z,75.50
2018-05-16T17:05:55.264Z,75.90
2018-05-16T17:08:21.460Z,74.80
2018-05-16T17:10:48.380Z,76.00
2018-05-16T17:13:14.543Z,75.70
2018-05-16T17:15:41.469Z,75.90
2018-05-16T17:18:07.671Z,75.80
2018-05-16T17:20:33.899Z,76.60
2018-05-16T17:23:00.072Z,76.70
2018-05-16T17:25:27.066Z,77.90
2018-05-16T17:27:54.122Z,77.90
2018-05-16T17:30:20.383Z,79.20
2018-05-16T17:32:47.241Z,78.90
2018-05-16T17:35:14.248Z,78.50
2018-05-16T17:37:40.423Z,78.50
2018-05-16T17:40:06.589Z,78.90
2018-05-16T17:42:32.784Z,79.90
2018-05-16T17:44:58.958Z,80.40
2018-05-16T17:47:25.108Z,79.30
2018-05-16T17:49:51.406Z,78.90
2018-05-16T17:52:17.548Z,79.70
2018-05-16T17:54:43.748Z,79.40
2018-05-16T17:57:09.920Z,80.90
2018-05-16T17:59:36.871Z,80.70
2018-05-16T18:02:03.797Z,81.40
2018-05-16T18:04:29.957Z,81.40
2018-05-16T18:06:56.972Z,82.20
2018-05-16T18:09:23.142Z,82.20
2018-05-16T18:11:49.921Z,82.40
2018-05-16T18:14:28.425Z,82.50
2018-05-16T18:17:06.835Z,82.40
2018-05-16T18:19:32.920Z,82.30
2018-05-16T18:21:59.870Z,83.10
2018-05-16T18:24:26.936Z,83.90
2018-05-16T18:26:53.171Z,83.90
2018-05-16T18:29:19.324Z,84.30
2018-05-16T18:31:45.503Z,84.50
2018-05-16T18:34:12.400Z,84.20
2018-05-16T18:36:39.000Z,84.00
2018-05-16T18:39:05.196Z,84.50
2018-05-16T18:41:31.348Z,84.50
2018-05-16T18:44:01.818Z,85.60
2018-05-16T18:46:28.129Z,85.50
2018-05-16T18:48:54.296Z,86.80
2018-05-16T18:51:20.463Z,86.70
2018-05-16T18:53:47.797Z,86.60
2018-05-16T18:56:15.965Z,86.60
2018-05-16T18:58:44.584Z,87.20
2018-05-16T19:01:23.340Z,86.20
2018-05-16T19:03:49.891Z,86.20
2018-05-16T19:06:16.076Z,86.30
2018-05-16T19:08:42.269Z,86.00
2018-05-16T19:11:08.420Z,86.40
2018-05-16T19:13:34.573Z,87.20
2018-05-16T19:16:00.831Z,87.20
2018-05-16T19:18:27.005Z,86.80
2018-05-16T19:20:55.445Z,86.30
2018-05-16T19:23:21.860Z,86.30
2018-05-16T19:25:48.276Z,86.30
2018-05-16T19:28:14.421Z,86.30
2018-05-16T19:30:40.582Z,87.00
2018-05-16T19:33:07.602Z,86.70
2018-05-16T19:35:33.771Z,86.50
2018-05-16T19:38:00.684Z,86.70
2018-05-16T19:40:26.866Z,86.70
2018-05-16T19:42:53.069Z,87.00
2018-05-16T19:45:20.065Z,86.60
2018-05-16T19:47:46.307Z,86.50
2018-05-16T19:50:12.474Z,87.00
2018-05-16T19:52:39.414Z,87.50
2018-05-16T19:55:05.680Z,88.20
2018-05-16T19:57:31.849Z,88.20
2018-05-16T19:59:58.037Z,88.10
2018-05-16T20:02:24.193Z,88.30
2018-05-16T20:04:50.366Z,88.20
2018-05-16T20:07:17.264Z,87.40
2018-05-16T20:09:43.431Z,87.30
2018-05-16T20:12:10.342Z,87.80
2018-05-16T20:14:36.553Z,87.80
2018-05-16T20:17:02.934Z,88.10
2018-05-16T20:19:29.089Z,88.60
2018-05-16T20:21:55.251Z,87.90
2018-05-16T20:24:21.421Z,87.20
2018-05-16T20:26:48.324Z,87.90
2018-05-16T20:29:14.606Z,87.90
2018-05-16T20:31:41.512Z,87.80
2018-05-16T20:34:07.740Z,87.80
2018-05-16T20:36:33.983Z,87.90
2018-05-16T20:39:00.315Z,88.70
2018-05-16T20:41:26.496Z,88.50
2018-05-16T20:43:52.912Z,88.40
2018-05-16T20:46:19.189Z,88.30
2018-05-16T20:48:45.339Z,89.20
2018-05-16T20:51:11.636Z,89.70
2018-05-16T20:53:37.900Z,89.50
2018-05-16T20:56:04.055Z,89.40
2018-05-16T20:58:31.000Z,89.30
2018-05-16T21:00:57.163Z,89.20
2018-05-16T21:03:23.344Z,89.30
2018-05-16T21:05:50.302Z,89.10
2018-05-16T21:08:17.316Z,88.70
2018-05-16T21:10:43.479Z,88.60
2018-05-16T21:13:09.622Z,88.60
2018-05-16T21:15:35.801Z,89.20
2018-05-16T21:18:02.010Z,90.00
2018-05-16T21:20:28.169Z,89.20
2018-05-16T21:22:54.360Z,88.50
2018-05-16T21:25:20.521Z,88.70
2018-05-16T21:27:46.815Z,88.90
2018-05-16T21:30:12.973Z,88.00
2018-05-16T21:32:39.147Z,88.80
2018-05-16T21:35:05.306Z,88.40
2018-05-16T21:37:31.586Z,88.60
2018-05-16T21:39:57.815Z,89.30
2018-05-16T21:42:23.973Z,89.10
2018-05-16T21:44:50.178Z,89.10
2018-05-16T21:47:16.496Z,88.60
2018-05-16T21:49:43.408Z,88.90
2018-05-16T21:52:09.587Z,88.80
2018-05-16T21:54:35.735Z,89.20
2018-05-16T21:57:01.899Z,88.70
2018-05-16T21:59:28.096Z,89.10
2018-05-16T22:01:54.256Z,89.80
2018-05-16T22:04:20.416Z,89.00
2018-05-16T22:06:46.608Z,89.10
2018-05-16T22:09:12.789Z,89.20
2018-05-16T22:11:38.959Z,89.00
2018-05-16T22:14:05.096Z,89.70
2018-05-16T22:16:31.259Z,89.80
2018-05-16T22:18:57.407Z,90.00
2018-05-16T22:21:23.571Z,90.30
2018-05-16T22:23:49.777Z,89.80
2018-05-16T22:26:15.933Z,89.00
2018-05-16T22:28:42.132Z,89.10
2018-05-16T22:31:14.420Z,89.40
2018-05-16T22:33:46.864Z,89.60
2018-05-16T22:36:19.192Z,89.70
2018-05-16T22:38:51.312Z,89.00
2018-05-16T22:41:23.640Z,89.00
2018-05-16T22:44:00.561Z,88.90
2018-05-16T22:46:26.744Z,88.90
2018-05-16T22:48:53.661Z,88.70
2018-05-16T22:51:19.850Z,88.50
2018-05-16T22:53:46.012Z,89.10
2018-05-16T22:56:12.178Z,89.50
2018-05-16T22:58:39.060Z,87.90
2018-05-16T23:01:05.227Z,87.80
2018-05-16T23:03:31.409Z,88.20
2018-05-16T23:05:57.614Z,88.70
2018-05-16T23:08:23.801Z,88.90
2018-05-16T23:10:50.033Z,88.90
2018-05-16T23:13:16.302Z,88.60
2018-05-16T23:15:42.443Z,87.40
2018-05-16T23:18:08.584Z,87.90
2018-05-16T23:20:34.770Z,88.20
2018-05-16T23:23:01.674Z,87.70
2018-05-16T23:25:27.933Z,87.70
2018-05-16T23:27:54.875Z,86.30
2018-05-16T23:30:21.032Z,86.10
2018-05-16T23:32:47.541Z,87.40
2018-05-16T23:35:13.697Z,87.70
2018-05-16T23:37:39.872Z,87.50
2018-05-16T23:40:06.020Z,87.10
2018-05-16T23:42:32.168Z,87.30
2018-05-16T23:44:59.069Z,87.30
2018-05-16T23:47:25.264Z,87.30
2018-05-16T23:49:51.417Z,87.00
2018-05-16T23:52:17.572Z,86.70
2018-05-16T23:54:43.730Z,87.70
2018-05-16T23:57:09.892Z,87.60
2018-05-16T23:59:36.084Z,87.20
